Hauptseite
METAR-TAF:

METAR-TAF

Flughäfen :

Flughafen Molde-Arø

Molde, Norwegen

Breite: 62-45N, Länge: 007-16E, Höhe: 0 m

Beobachtung

Neuester Wetterbericht von vor 40 Minuten, um 23:50 UTC
Wind 9 kt aus Nordost, variierte zwischen Nord und Ost/Nordost
Temperatur 4°C
Luftfeuchtigkeit 65%
Luftdruck 1010 hPa
Sichtweite 10 km oder mehr

METAR: ENML 162350Z AUTO 04009KT 010V070 9999NDV OVC082/// 04/M02 Q1010

Zeit: 02:30 (00:30 UTC)

Prognose

Neuester Wetterbericht von vor 7 Stunden und 5 Minuten, um 17:25 UTC
Gültige Prognose vom 16 um 17 UTC bis 16 um 23 UTC
Wind 8 kt aus Nordwest
Sichtweite 10 km oder mehr
keine Wolken unter 1500 m und keine Kumulonimbus oder Gewitterwolken
Übergehend zu
vom 16 um 18 UTC bis 16 um 20 UTC
Wind 10 kt aus Nord/Nordost

TAF: ENML 161725Z 1617/1623 32008KT CAVOK BECMG 1618/1620 02010KT

Wetterbeobachtungen und Prognosen von mehr als 4000 Flughäfen (METAR und TAF Bericht).

Die verfügbaren Stationen werden durch gelbe und rote Markierungen auf der Karte dargestellt.

Führen Sie die Maus auf sie, um den Namen der Station zu sehen.

Darauf klicken, um die Beobachtung von Wetterbeobachtungen und Prognosen zu sehen.

Um die Karte zu ändern : klicken Sie auf den grünen Tasten mit einem schwarzen Kreuz Zum Vergrößern, auf den grünen Button mit einem Gedankenstrich zu verkleinern, oder auf die grünen Pfeile für benachbarte Karten.


METAR-TAF: